Time;durP1;ratioP1;P1;durP2;ratioP2;P2;SDS_P1;SDS_P2;PMS_P1;PMS_P2;Temp;Humidity;BMP_temperature;BMP_pressure;BME280_temperature;BME280_humidity;BME280_pressure;Samples;Min_cycle;Max_cycle;Signal;HPM_P1;HPM_P2
2023/08/17 00:01:34;;;;;;;4.43;1.92;;;16.00;99.90;;;;;;5136348;27;20477;-65
2023/08/17 00:04:00;;;;;;;4.63;2.50;;;16.00;99.90;;;;;;5135837;27;20164;-65
2023/08/17 00:06:26;;;;;;;5.68;2.30;;;16.00;99.90;;;;;;5118575;27;20053;-65
2023/08/17 00:08:51;;;;;;;8.07;2.35;;;16.00;99.90;;;;;;5136286;27;20489;-65
2023/08/17 00:11:17;;;;;;;4.82;1.88;;;16.00;99.90;;;;;;5136017;27;20430;-65
2023/08/17 00:13:43;;;;;;;4.65;2.00;;;16.00;99.90;;;;;;5118870;27;20038;-65
2023/08/17 00:16:08;;;;;;;5.40;2.50;;;16.00;99.90;;;;;;5135763;27;20046;-65
2023/08/17 00:18:34;;;;;;;7.50;2.17;;;15.90;99.90;;;;;;5135887;27;20043;-65
2023/08/17 00:21:00;;;;;;;3.72;2.35;;;16.00;99.90;;;;;;5135923;27;20039;-65
2023/08/17 00:23:25;;;;;;;3.00;1.90;;;16.00;99.90;;;;;;5118546;27;20054;-65
2023/08/17 00:25:51;;;;;;;6.97;2.40;;;16.00;99.90;;;;;;5135935;27;20043;-65
2023/08/17 00:28:17;;;;;;;6.15;2.10;;;16.00;99.90;;;;;;5115101;27;20046;-65
2023/08/17 00:30:42;;;;;;;4.32;1.73;;;16.00;99.90;;;;;;5115599;27;20469;-65
2023/08/17 00:33:08;;;;;;;4.70;2.13;;;16.00;99.90;;;;;;5133183;27;20055;-65
2023/08/17 00:35:33;;;;;;;5.38;2.08;;;15.90;99.90;;;;;;5133557;27;20031;-65
2023/08/17 00:38:00;;;;;;;5.25;2.17;;;15.90;99.90;;;;;;5097988;27;20068;-65
2023/08/17 00:40:25;;;;;;;8.05;2.17;;;15.90;99.90;;;;;;5114896;27;20084;-65
2023/08/17 00:42:51;;;;;;;5.57;2.20;;;15.80;99.90;;;;;;5114866;27;20051;-65
2023/08/17 00:45:18;;;;;;;6.90;1.83;;;15.80;99.90;;;;;;5097579;27;20051;-65
2023/08/17 00:47:45;;;;;;;5.47;1.80;;;15.80;99.90;;;;;;5097299;27;20051;-65
2023/08/17 00:50:12;;;;;;;5.72;2.30;;;15.80;99.90;;;;;;5114615;27;20035;-65
2023/08/17 00:52:38;;;;;;;6.30;2.00;;;15.80;99.90;;;;;;5114254;27;20043;-65
2023/08/17 00:55:05;;;;;;;5.13;2.00;;;15.70;99.90;;;;;;5114591;27;20047;-65
2023/08/17 00:57:32;;;;;;;3.13;1.73;;;15.70;99.90;;;;;;5114515;27;20039;-65
2023/08/17 00:59:58;;;;;;;4.55;1.77;;;15.70;99.90;;;;;;5097763;27;20049;-65
2023/08/17 01:02:24;;;;;;;4.18;1.70;;;15.70;99.90;;;;;;5132794;27;20031;-65
2023/08/17 01:04:50;;;;;;;4.80;2.00;;;15.70;99.90;;;;;;5114435;27;20122;-65
2023/08/17 01:07:16;;;;;;;3.25;1.75;;;15.70;99.90;;;;;;5114607;27;20039;-65
2023/08/17 01:09:41;;;;;;;4.82;1.88;;;15.70;99.90;;;;;;5097065;27;20043;-65
2023/08/17 01:12:19;;;;;;;5.85;1.77;;;15.60;99.90;;;;;;5131904;27;20039;-65
2023/08/17 01:15:04;;;;;;;5.50;1.83;;;15.70;99.90;;;;;;5097241;27;20055;-65
2023/08/17 01:17:37;;;;;;;7.13;1.95;;;15.70;99.90;;;;;;5132506;27;20070;-65
2023/08/17 01:20:04;;;;;;;4.78;1.85;;;15.60;99.90;;;;;;5114248;27;20042;-65
2023/08/17 01:22:33;;;;;;;4.95;1.60;;;15.60;99.90;;;;;;5133083;27;20043;-65
2023/08/17 01:24:58;;;;;;;5.32;2.10;;;15.60;99.90;;;;;;5134953;27;20042;-65
2023/08/17 01:27:25;;;;;;;7.40;2.13;;;15.60;99.90;;;;;;5152894;27;20168;-65
2023/08/17 01:29:51;;;;;;;4.38;1.60;;;15.50;99.90;;;;;;5134852;27;20050;-65
2023/08/17 01:32:49;;;;;;;4.93;1.98;;;15.50;99.90;;;;;;5134528;27;20050;-65
2023/08/17 01:35:45;;;;;;;5.65;1.83;;;15.50;99.90;;;;;;5116274;27;20082;-65
2023/08/17 01:38:21;;;;;;;6.88;1.83;;;15.40;99.90;;;;;;5134307;27;20463;-65
2023/08/17 01:40:48;;;;;;;4.00;1.70;;;15.40;99.90;;;;;;5134338;27;20042;-65
2023/08/17 01:43:16;;;;;;;7.57;1.75;;;15.40;99.90;;;;;;5134197;27;20042;-65
2023/08/17 01:45:41;;;;;;;2.85;1.73;;;15.40;99.90;;;;;;5134027;27;20070;-65
2023/08/17 01:48:07;;;;;;;3.53;1.83;;;15.40;99.90;;;;;;5152765;27;20039;-65
2023/08/17 01:50:33;;;;;;;3.38;2.00;;;15.30;99.90;;;;;;5152741;27;20063;-65
2023/08/17 01:52:58;;;;;;;5.15;1.90;;;15.30;99.90;;;;;;5134337;27;20175;-65
2023/08/17 01:55:24;;;;;;;4.13;2.15;;;15.30;99.90;;;;;;5133939;27;20054;-65
2023/08/17 01:57:50;;;;;;;6.05;1.83;;;15.30;99.90;;;;;;5134345;27;20119;-65
2023/08/17 02:00:16;;;;;;;6.03;2.13;;;15.30;99.90;;;;;;5133899;27;20050;-66
2023/08/17 02:02:41;;;;;;;3.72;1.45;;;15.30;99.90;;;;;;5133796;27;20065;-65
2023/08/17 02:05:08;;;;;;;5.32;2.10;;;15.30;99.90;;;;;;5133876;27;20042;-65
2023/08/17 02:07:33;;;;;;;4.78;1.90;;;15.30;99.90;;;;;;5152213;27;20109;-65
2023/08/17 02:09:59;;;;;;;5.18;1.83;;;15.20;99.90;;;;;;5134158;27;20121;-65
2023/08/17 02:12:25;;;;;;;6.20;1.73;;;15.20;99.90;;;;;;5133772;27;20030;-66
2023/08/17 02:14:50;;;;;;;7.07;2.13;;;15.20;99.90;;;;;;5116628;27;20087;-65
2023/08/17 02:17:16;;;;;;;5.18;1.80;;;15.20;99.90;;;;;;5134080;27;20078;-65
2023/08/17 02:19:43;;;;;;;6.47;1.75;;;15.20;99.90;;;;;;5133496;27;20118;-65
2023/08/17 02:22:09;;;;;;;4.50;1.92;;;15.20;99.90;;;;;;5115971;27;20127;-65
2023/08/17 02:24:34;;;;;;;4.65;1.98;;;15.30;99.90;;;;;;5133560;27;20054;-66
2023/08/17 02:27:00;;;;;;;5.63;2.03;;;15.30;99.90;;;;;;5133865;27;20031;-65
2023/08/17 02:29:26;;;;;;;3.47;1.88;;;15.30;99.90;;;;;;5133675;27;20499;-65
2023/08/17 02:31:51;;;;;;;3.33;1.63;;;15.30;99.90;;;;;;5133669;27;20049;-65
2023/08/17 02:34:17;;;;;;;4.45;1.90;;;15.30;99.90;;;;;;5133646;27;20050;-65
2023/08/17 02:36:43;;;;;;;4.70;1.85;;;15.20;99.90;;;;;;5133382;27;20059;-65
2023/08/17 02:39:08;;;;;;;7.40;1.80;;;15.20;99.90;;;;;;5133644;27;20046;-65
2023/08/17 02:41:34;;;;;;;3.75;1.88;;;15.20;99.90;;;;;;5133463;27;20384;-65
2023/08/17 02:44:01;;;;;;;5.88;1.80;;;15.20;99.90;;;;;;5133940;27;20047;-65
2023/08/17 02:46:26;;;;;;;6.45;2.30;;;15.10;99.90;;;;;;5133436;27;20042;-66
2023/08/17 02:48:53;;;;;;;5.60;2.30;;;15.10;99.90;;;;;;5133352;27;20039;-65
2023/08/17 02:51:18;;;;;;;6.68;1.75;;;15.10;99.90;;;;;;5133418;27;20139;-65
2023/08/17 02:53:44;;;;;;;8.02;2.35;;;15.10;99.90;;;;;;5151757;27;20191;-65
2023/08/17 02:56:12;;;;;;;4.95;1.83;;;15.10;99.90;;;;;;5133379;27;20035;-65
2023/08/17 02:58:41;;;;;;;6.30;2.22;;;15.10;99.90;;;;;;5133377;27;20039;-65
2023/08/17 03:01:08;;;;;;;3.63;2.10;;;15.10;99.90;;;;;;5133497;27;20107;-65
2023/08/17 03:03:34;;;;;;;5.25;2.17;;;15.10;99.90;;;;;;5151941;27;20033;-65
2023/08/17 03:06:00;;;;;;;5.13;1.73;;;15.10;99.90;;;;;;5133048;27;20046;-65
2023/08/17 03:08:26;;;;;;;4.90;2.20;;;15.00;99.90;;;;;;5116167;27;20035;-65
2023/08/17 03:10:52;;;;;;;5.10;2.20;;;15.10;99.90;;;;;;5132743;27;20118;-65
2023/08/17 03:13:17;;;;;;;3.72;1.77;;;15.00;99.90;;;;;;5133224;27;20119;-65
2023/08/17 03:15:43;;;;;;;4.88;1.88;;;15.00;99.90;;;;;;5133238;27;20455;-65
2023/08/17 03:18:08;;;;;;;6.22;2.58;;;15.00;99.90;;;;;;5133622;27;20049;-65
2023/08/17 03:20:34;;;;;;;8.73;2.05;;;15.00;99.90;;;;;;5133576;27;20118;-65
2023/08/17 03:23:00;;;;;;;4.35;2.10;;;15.00;99.90;;;;;;5133292;27;20425;-65
2023/08/17 03:25:25;;;;;;;7.88;2.28;;;15.00;99.90;;;;;;5133086;27;20047;-65
2023/08/17 03:27:51;;;;;;;4.63;2.03;;;15.00;99.90;;;;;;5132923;27;20034;-65
2023/08/17 03:30:17;;;;;;;7.22;1.98;;;15.00;99.90;;;;;;5133013;27;20041;-65
2023/08/17 03:32:42;;;;;;;3.83;1.83;;;15.00;99.90;;;;;;5132899;27;20042;-65
2023/08/17 03:35:08;;;;;;;4.80;2.20;;;15.00;99.90;;;;;;5135454;27;20556;-65
2023/08/17 03:37:34;;;;;;;4.65;1.90;;;15.00;99.90;;;;;;5136829;27;20070;-66
2023/08/17 03:40:00;;;;;;;6.57;2.22;;;15.00;99.90;;;;;;5119239;27;20050;-65
2023/08/17 03:42:26;;;;;;;7.15;2.33;;;15.00;99.90;;;;;;5155334;27;20446;-65
2023/08/17 03:44:52;;;;;;;5.57;2.08;;;15.00;99.90;;;;;;5118480;27;20054;-65
2023/08/17 03:47:18;;;;;;;4.53;2.17;;;15.10;99.90;;;;;;5136525;27;20465;-65
2023/08/17 03:49:44;;;;;;;5.30;2.20;;;15.10;99.90;;;;;;5136440;27;20064;-65
2023/08/17 03:52:10;;;;;;;7.18;2.60;;;15.10;99.90;;;;;;5136547;27;20030;-65
2023/08/17 03:54:36;;;;;;;5.93;2.38;;;15.10;99.90;;;;;;5136705;27;20047;-65
2023/08/17 03:57:02;;;;;;;5.55;2.30;;;15.10;99.90;;;;;;5135790;27;20050;-65
2023/08/17 03:59:28;;;;;;;7.63;2.60;;;15.10;99.90;;;;;;5136224;27;20397;-66
2023/08/17 04:01:53;;;;;;;5.65;2.30;;;15.10;99.90;;;;;;5154628;27;20160;-65
2023/08/17 04:04:19;;;;;;;3.85;2.25;;;15.10;99.90;;;;;;5136206;27;20475;-65
2023/08/17 04:06:45;;;;;;;5.63;2.33;;;15.10;99.90;;;;;;5136186;27;20039;-65
2023/08/17 04:09:11;;;;;;;4.22;2.10;;;15.10;99.90;;;;;;5136253;27;20042;-65
2023/08/17 04:11:36;;;;;;;6.00;2.50;;;15.10;99.90;;;;;;5136284;27;20034;-65
2023/08/17 04:14:03;;;;;;;6.22;2.30;;;15.20;99.90;;;;;;5135655;27;20046;-65
2023/08/17 04:16:29;;;;;;;4.65;2.20;;;15.20;99.90;;;;;;5136278;27;20039;-65
2023/08/17 04:18:54;;;;;;;6.10;2.40;;;15.20;99.90;;;;;;5135829;27;20058;-65
2023/08/17 04:21:20;;;;;;;5.28;2.50;;;15.20;99.90;;;;;;5135805;27;20031;-65
2023/08/17 04:23:46;;;;;;;5.15;2.88;;;15.30;99.90;;;;;;5135929;27;20070;-65
2023/08/17 04:26:12;;;;;;;5.35;2.50;;;15.30;99.90;;;;;;5118285;27;20405;-65
2023/08/17 04:28:38;;;;;;;4.50;2.53;;;15.30;99.90;;;;;;5118510;27;20031;-65
2023/08/17 04:31:03;;;;;;;5.40;2.90;;;15.30;99.90;;;;;;5135841;27;20030;-65
2023/08/17 04:33:29;;;;;;;4.57;2.28;;;15.40;99.90;;;;;;5135528;27;20050;-65
2023/08/17 04:35:55;;;;;;;8.00;3.13;;;15.40;99.90;;;;;;5135488;27;20047;-65
2023/08/17 04:38:20;;;;;;;5.95;2.35;;;15.40;99.90;;;;;;5135642;27;20143;-65
2023/08/17 04:40:46;;;;;;;5.13;2.50;;;15.40;99.90;;;;;;5117789;27;20100;-65
2023/08/17 04:43:12;;;;;;;4.75;2.17;;;15.40;99.90;;;;;;5153724;27;20043;-65
2023/08/17 04:45:38;;;;;;;7.07;2.30;;;15.40;99.90;;;;;;5135396;27;20426;-65
2023/08/17 04:48:05;;;;;;;4.90;2.08;;;15.40;99.90;;;;;;5135329;27;20170;-65
2023/08/17 04:50:31;;;;;;;6.05;2.38;;;15.40;99.90;;;;;;5135579;27;20106;-65
2023/08/17 04:52:57;;;;;;;5.78;2.10;;;15.50;99.90;;;;;;5135314;27;20038;-65
2023/08/17 04:55:23;;;;;;;6.53;2.25;;;15.50;99.90;;;;;;5135366;27;20397;-65
2023/08/17 04:57:48;;;;;;;6.97;2.20;;;15.50;99.90;;;;;;5153617;27;20039;-66
2023/08/17 05:00:15;;;;;;;6.20;2.17;;;15.50;99.90;;;;;;5134892;27;20502;-66
2023/08/17 05:02:41;;;;;;;6.05;2.00;;;15.60;99.90;;;;;;5118218;27;20034;-65
2023/08/17 05:05:09;;;;;;;4.93;2.10;;;15.60;99.90;;;;;;5134841;27;20396;-65
2023/08/17 05:07:35;;;;;;;5.15;2.20;;;15.60;99.90;;;;;;5134906;27;20061;-65
2023/08/17 05:10:01;;;;;;;7.05;2.30;;;15.60;99.90;;;;;;5134918;27;20038;-65
2023/08/17 05:12:27;;;;;;;4.40;1.83;;;15.60;99.90;;;;;;5134595;27;20065;-66
2023/08/17 05:14:53;;;;;;;6.03;1.80;;;15.60;99.90;;;;;;5135045;27;20047;-66
2023/08/17 05:17:18;;;;;;;6.60;2.00;;;15.70;99.90;;;;;;5134823;27;20046;-66
2023/08/17 05:19:44;;;;;;;6.03;2.03;;;15.70;99.90;;;;;;5134904;27;20045;-65
2023/08/17 05:22:11;;;;;;;4.75;2.10;;;15.70;99.90;;;;;;5134821;27;20039;-66
2023/08/17 05:24:37;;;;;;;7.20;2.03;;;15.80;99.90;;;;;;5117518;27;20473;-66
2023/08/17 05:27:03;;;;;;;5.10;1.83;;;15.70;99.90;;;;;;5134722;27;20037;-66
2023/08/17 05:29:28;;;;;;;5.88;2.13;;;15.80;99.90;;;;;;5134236;27;20039;-65
2023/08/17 05:31:54;;;;;;;6.40;1.92;;;15.90;99.90;;;;;;5134630;27;20041;-66
2023/08/17 05:34:19;;;;;;;6.50;1.70;;;15.90;99.90;;;;;;5116632;27;20101;-66
2023/08/17 05:36:45;;;;;;;6.78;1.83;;;15.90;99.90;;;;;;5134660;27;20034;-65
2023/08/17 05:39:11;;;;;;;7.28;2.10;;;16.00;99.90;;;;;;5134499;27;20034;-66
2023/08/17 05:41:36;;;;;;;6.13;1.70;;;16.00;99.90;;;;;;5134073;27;20050;-66
2023/08/17 05:44:02;;;;;;;7.07;2.20;;;16.00;99.90;;;;;;5134363;27;20034;-66
2023/08/17 05:46:28;;;;;;;6.57;2.05;;;16.00;99.90;;;;;;5133927;27;20449;-65
2023/08/17 05:48:54;;;;;;;6.20;1.92;;;16.10;99.90;;;;;;5134287;27;20446;-65
2023/08/17 05:51:19;;;;;;;6.90;1.92;;;16.10;99.90;;;;;;5133760;27;20039;-65
2023/08/17 05:53:45;;;;;;;8.45;1.85;;;16.10;99.90;;;;;;5134350;27;20035;-65
2023/08/17 05:56:11;;;;;;;8.32;1.90;;;16.10;99.90;;;;;;5134060;27;20078;-66
2023/08/17 05:58:36;;;;;;;7.80;2.17;;;16.00;99.90;;;;;;5152285;27;20035;-66
2023/08/17 06:01:10;;;;;;;4.35;1.85;;;16.10;99.90;;;;;;5134183;27;20046;-65
2023/08/17 06:03:36;;;;;;;3.38;1.70;;;16.10;99.90;;;;;;5133791;27;20042;-65
2023/08/17 06:06:06;;;;;;;7.20;1.73;;;16.00;99.90;;;;;;5133944;27;20493;-66
2023/08/17 06:08:32;;;;;;;3.60;1.75;;;16.00;99.90;;;;;;5152161;27;20037;-66
2023/08/17 06:10:57;;;;;;;3.50;1.98;;;16.00;99.90;;;;;;5134155;27;20492;-65
2023/08/17 06:13:23;;;;;;;4.40;2.17;;;16.10;99.90;;;;;;5133899;27;20046;-65
2023/08/17 06:15:49;;;;;;;3.38;2.00;;;16.00;99.90;;;;;;5133698;27;20430;-65
2023/08/17 06:18:15;;;;;;;4.85;1.73;;;16.00;99.90;;;;;;5116857;27;20121;-65
2023/08/17 06:20:40;;;;;;;6.03;2.00;;;16.00;99.90;;;;;;5133393;27;20466;-66
2023/08/17 06:23:06;;;;;;;5.25;1.77;;;16.00;99.90;;;;;;5133753;27;20035;-65
2023/08/17 06:25:32;;;;;;;5.18;1.67;;;16.10;99.90;;;;;;5133331;27;20042;-65
2023/08/17 06:27:58;;;;;;;6.18;2.40;;;16.10;99.90;;;;;;5133901;27;20506;-66
2023/08/17 06:30:23;;;;;;;5.18;1.48;;;16.20;99.90;;;;;;5133552;27;20030;-65
2023/08/17 06:32:51;;;;;;;6.78;1.67;;;16.20;99.90;;;;;;5133567;27;20106;-65
2023/08/17 06:35:17;;;;;;;4.95;1.60;;;16.20;99.90;;;;;;5133755;27;20051;-65
2023/08/17 06:37:43;;;;;;;4.82;1.70;;;16.30;99.90;;;;;;5133257;27;20546;-65
2023/08/17 06:40:09;;;;;;;5.00;1.85;;;16.30;99.90;;;;;;5133751;27;20466;-65
2023/08/17 06:42:35;;;;;;;6.53;1.80;;;16.40;99.90;;;;;;5133309;27;20042;-65
2023/08/17 06:45:00;;;;;;;10.27;2.10;;;16.40;99.90;;;;;;5133493;27;20042;-65
2023/08/17 06:47:26;;;;;;;7.03;2.13;;;16.50;99.90;;;;;;5133416;27;20117;-65
2023/08/17 06:49:52;;;;;;;6.03;2.20;;;16.50;99.90;;;;;;5133637;27;20062;-65
2023/08/17 06:52:17;;;;;;;5.57;1.48;;;16.60;99.90;;;;;;5133897;27;20051;-65
2023/08/17 06:54:43;;;;;;;6.43;1.50;;;16.60;99.90;;;;;;5115724;27;20051;-65
2023/08/17 06:57:09;;;;;;;7.18;2.25;;;16.70;99.90;;;;;;5133443;27;20187;-65
2023/08/17 06:59:34;;;;;;;6.35;1.60;;;16.70;99.90;;;;;;5132823;27;20544;-66
2023/08/17 07:02:00;;;;;;;2.70;1.63;;;16.70;99.90;;;;;;5133599;27;20473;-66
2023/08/17 07:04:26;;;;;;;7.40;1.98;;;16.80;99.90;;;;;;5115744;27;20047;-65
2023/08/17 07:06:52;;;;;;;3.55;1.80;;;16.70;99.90;;;;;;5115472;27;20039;-65
2023/08/17 07:09:18;;;;;;;5.65;1.70;;;16.80;99.90;;;;;;5153448;27;20038;-65
2023/08/17 07:11:44;;;;;;;6.72;1.92;;;16.80;99.90;;;;;;5136971;27;20082;-65
2023/08/17 07:14:10;;;;;;;5.82;1.70;;;16.80;99.90;;;;;;5137366;27;20073;-65
2023/08/17 07:16:35;;;;;;;5.32;1.58;;;16.80;99.90;;;;;;5137097;27;20035;-66
2023/08/17 07:19:02;;;;;;;6.85;1.63;;;16.90;99.90;;;;;;5155622;27;20446;-66
2023/08/17 07:21:28;;;;;;;8.80;2.00;;;16.90;99.90;;;;;;5119443;27;20050;-66
2023/08/17 07:23:54;;;;;;;7.10;1.70;;;16.90;99.90;;;;;;5136491;27;20083;-65
2023/08/17 07:26:20;;;;;;;6.22;1.70;;;16.90;99.90;;;;;;5119983;27;20050;-65
2023/08/17 07:28:47;;;;;;;5.40;1.60;;;17.00;99.90;;;;;;5136753;27;20038;-65
2023/08/17 07:31:13;;;;;;;4.63;2.00;;;17.00;99.90;;;;;;5136883;27;20083;-65
2023/08/17 07:33:39;;;;;;;6.80;1.80;;;17.00;99.90;;;;;;5136509;27;20056;-65
2023/08/17 07:36:05;;;;;;;3.40;1.40;;;17.10;99.90;;;;;;5136351;27;20470;-65
2023/08/17 07:38:31;;;;;;;6.75;2.05;;;17.10;99.90;;;;;;5135003;27;20121;-65
2023/08/17 07:40:57;;;;;;;7.30;1.77;;;17.10;99.90;;;;;;5134219;27;20121;-65
2023/08/17 07:43:23;;;;;;;4.45;1.40;;;17.00;99.90;;;;;;5135516;27;20114;-65
2023/08/17 07:45:56;;;;;;;6.47;1.85;;;17.10;99.90;;;;;;5153304;27;20067;-65
2023/08/17 07:48:21;;;;;;;4.28;1.40;;;17.10;99.90;;;;;;5135196;27;20042;-65
2023/08/17 07:50:51;;;;;;;5.03;1.80;;;17.10;99.90;;;;;;5117060;27;20077;-65
2023/08/17 07:53:18;;;;;;;5.65;1.58;;;17.10;99.90;;;;;;5135219;27;20483;-65
2023/08/17 07:55:43;;;;;;;3.97;1.30;;;17.10;99.90;;;;;;5134786;27;20043;-65
2023/08/17 07:58:09;;;;;;;3.30;1.17;;;17.20;99.90;;;;;;5153402;27;20090;-65
2023/08/17 08:00:34;;;;;;;7.10;1.80;;;17.20;99.90;;;;;;5134902;27;20030;-65
2023/08/17 08:03:00;;;;;;;4.10;1.42;;;17.20;99.90;;;;;;5134316;27;20130;-65
2023/08/17 08:05:26;;;;;;;3.83;1.30;;;17.20;99.90;;;;;;5134561;27;20041;-65
2023/08/17 08:07:52;;;;;;;3.78;1.83;;;17.20;99.90;;;;;;5134757;27;20080;-65
2023/08/17 08:10:18;;;;;;;4.90;1.48;;;17.20;99.90;;;;;;5134774;27;20142;-65
2023/08/17 08:12:43;;;;;;;4.35;1.25;;;17.30;99.90;;;;;;5116907;27;20523;-65
2023/08/17 08:15:09;;;;;;;5.05;1.40;;;17.30;99.90;;;;;;5153261;27;20031;-65
2023/08/17 08:17:35;;;;;;;1.98;1.20;;;17.30;99.90;;;;;;5134485;27;20125;-65
2023/08/17 08:20:01;;;;;;;5.90;1.98;;;17.40;99.90;;;;;;5133521;27;20046;-66
2023/08/17 08:22:27;;;;;;;3.63;1.45;;;17.50;99.90;;;;;;5117858;27;20049;-65
2023/08/17 08:24:52;;;;;;;3.30;1.20;;;17.60;99.90;;;;;;5135842;27;20043;-65
2023/08/17 08:27:18;;;;;;;6.05;1.55;;;17.70;99.90;;;;;;5135402;27;20392;-65
2023/08/17 08:29:44;;;;;;;3.72;1.30;;;17.70;99.90;;;;;;5135635;27;20515;-65
2023/08/17 08:32:10;;;;;;;6.88;1.58;;;17.90;99.90;;;;;;5135682;27;20039;-65
2023/08/17 08:34:35;;;;;;;6.53;1.30;;;18.00;99.90;;;;;;5131628;27;20179;-65
2023/08/17 08:37:01;;;;;;;5.53;1.27;;;18.30;99.90;;;;;;5114684;27;20051;-65
2023/08/17 08:39:27;;;;;;;5.47;1.33;;;18.60;99.90;;;;;;5114457;27;20142;-64
2023/08/17 08:41:53;;;;;;;3.72;1.30;;;18.80;99.90;;;;;;5132350;27;20040;-64
2023/08/17 08:44:19;;;;;;;5.28;1.15;;;18.90;99.90;;;;;;5131876;27;20047;-65
2023/08/17 08:46:45;;;;;;;3.65;1.20;;;18.80;99.90;;;;;;5131894;27;20089;-64
2023/08/17 08:49:13;;;;;;;3.72;1.10;;;18.80;99.90;;;;;;5131676;27;20043;-65
2023/08/17 08:51:45;;;;;;;4.43;1.20;;;18.80;99.90;;;;;;5131642;27;20088;-65
2023/08/17 08:54:21;;;;;;;5.03;1.10;;;18.80;99.90;;;;;;5130805;27;20053;-65
2023/08/17 08:56:51;;;;;;;3.83;1.38;;;19.00;99.90;;;;;;5131780;27;20039;-65
2023/08/17 08:59:17;;;;;;;5.00;1.30;;;19.30;99.90;;;;;;5131588;27;20035;-65
2023/08/17 09:01:43;;;;;;;4.20;1.10;;;19.70;99.90;;;;;;5131641;27;20466;-65
2023/08/17 09:04:09;;;;;;;3.28;1.20;;;19.90;99.90;;;;;;5113908;27;20047;-65
2023/08/17 09:06:36;;;;;;;3.63;1.02;;;20.00;99.90;;;;;;5131365;27;20389;-66
2023/08/17 09:09:05;;;;;;;2.33;1.15;;;20.00;99.90;;;;;;5133502;27;20474;-67
2023/08/17 09:11:31;;;;;;;7.65;1.20;;;20.00;99.90;;;;;;5115635;27;20073;-65
2023/08/17 09:13:57;;;;;;;4.22;1.30;;;19.90;99.90;;;;;;5113783;27;20428;-64
2023/08/17 09:16:23;;;;;;;4.35;1.30;;;19.80;99.90;;;;;;5131523;27;20558;-64
2023/08/17 09:18:48;;;;;;;7.90;1.50;;;19.70;99.90;;;;;;5113605;27;20055;-65
2023/08/17 09:21:24;;;;;;;2.85;1.08;;;19.60;99.90;;;;;;5131089;27;20085;-64
2023/08/17 09:23:54;;;;;;;6.25;1.20;;;19.60;99.90;;;;;;5131364;27;20374;-65
2023/08/17 09:26:24;;;;;;;6.25;1.30;;;19.50;99.90;;;;;;5130889;27;20424;-65
2023/08/17 09:28:51;;;;;;;3.60;1.00;;;19.30;99.90;;;;;;5131097;27;20058;-65
2023/08/17 09:31:21;;;;;;;3.35;1.23;;;19.30;99.90;;;;;;5130098;27;20039;-65
2023/08/17 09:33:51;;;;;;;2.95;1.20;;;19.30;99.90;;;;;;5126424;27;20618;-64
2023/08/17 09:36:24;;;;;;;2.45;1.23;;;19.30;99.90;;;;;;5130904;27;20057;-65
2023/08/17 09:38:50;;;;;;;2.72;1.20;;;19.20;99.90;;;;;;5130966;27;20078;-65
2023/08/17 09:41:17;;;;;;;4.10;1.60;;;19.20;99.90;;;;;;5130743;27;20043;-65
2023/08/17 09:43:43;;;;;;;3.50;1.27;;;19.10;99.90;;;;;;5131025;27;20039;-64
2023/08/17 09:46:10;;;;;;;3.70;1.23;;;19.10;99.90;;;;;;5117268;27;20042;-66
2023/08/17 09:48:36;;;;;;;4.22;1.38;;;19.00;99.90;;;;;;5110049;28;20042;-65
2023/08/17 09:51:02;;;;;;;2.55;1.20;;;19.10;99.90;;;;;;5109449;28;20520;-66
2023/08/17 09:53:28;;;;;;;4.50;1.30;;;19.10;99.90;;;;;;5109580;28;20043;-65
2023/08/17 09:55:57;;;;;;;4.05;0.90;;;19.10;99.90;;;;;;5109957;28;20055;-64
2023/08/17 09:58:22;;;;;;;5.45;1.55;;;19.10;99.90;;;;;;5110266;28;20050;-65
2023/08/17 10:00:50;;;;;;;4.25;1.20;;;19.10;99.90;;;;;;5110335;28;20043;-65
2023/08/17 10:03:17;;;;;;;3.95;1.30;;;19.10;99.90;;;;;;5110422;28;20513;-65
2023/08/17 10:05:46;;;;;;;4.57;1.73;;;19.10;99.90;;;;;;5109745;28;20039;-64
2023/08/17 10:08:12;;;;;;;3.80;1.40;;;19.20;99.90;;;;;;5110315;28;20467;-64
2023/08/17 10:10:43;;;;;;;4.18;1.50;;;19.10;99.90;;;;;;5110143;28;20036;-64
2023/08/17 10:13:26;;;;;;;2.92;1.23;;;19.20;99.90;;;;;;5110414;28;20130;-64
2023/08/17 10:16:04;;;;;;;4.25;1.27;;;19.20;99.90;;;;;;5110155;28;20058;-64
2023/08/17 10:18:56;;;;;;;3.38;1.40;;;19.20;99.90;;;;;;5109789;28;20142;-64
2023/08/17 10:21:31;;;;;;;1.90;1.10;;;19.30;99.90;;;;;;5109389;28;20082;-64
2023/08/17 10:23:57;;;;;;;3.72;1.42;;;19.40;99.90;;;;;;5110160;28;20390;-64
2023/08/17 10:26:24;;;;;;;1.90;1.08;;;19.60;99.90;;;;;;5109824;28;20038;-64
2023/08/17 10:28:51;;;;;;;4.00;1.38;;;19.80;99.90;;;;;;5109715;28;20047;-64
2023/08/17 10:31:17;;;;;;;3.97;1.25;;;19.90;99.90;;;;;;5109712;28;20039;-64
2023/08/17 10:33:45;;;;;;;2.63;1.13;;;19.90;99.90;;;;;;5109756;28;20104;-64
2023/08/17 10:36:12;;;;;;;5.45;1.55;;;19.90;99.90;;;;;;5125162;28;20430;-64
2023/08/17 10:38:38;;;;;;;2.22;1.35;;;19.90;99.90;;;;;;5130102;28;20060;-65
2023/08/17 10:41:09;;;;;;;3.22;1.27;;;19.80;99.90;;;;;;5130058;28;20482;-64
2023/08/17 10:43:34;;;;;;;2.53;1.27;;;19.80;99.90;;;;;;5132177;27;20091;-64
2023/08/17 10:46:16;;;;;;;4.22;1.40;;;19.70;99.90;;;;;;5135373;27;20039;-64
2023/08/17 10:48:45;;;;;;;2.67;1.30;;;19.70;99.90;;;;;;5134200;27;20095;-65
2023/08/17 10:51:14;;;;;;;4.93;1.65;;;19.60;99.90;;;;;;5134321;27;20473;-64
2023/08/17 10:53:43;;;;;;;1.95;1.33;;;19.70;99.90;;;;;;5134580;27;20127;-68
2023/08/17 10:56:13;;;;;;;4.28;1.40;;;19.70;99.90;;;;;;5134595;27;20051;-65
2023/08/17 10:58:39;;;;;;;3.78;1.65;;;19.70;99.90;;;;;;5116601;27;20416;-65
2023/08/17 11:01:04;;;;;;;3.10;1.80;;;19.70;99.90;;;;;;5133796;27;20046;-65
2023/08/17 11:03:30;;;;;;;6.97;1.90;;;19.70;99.90;;;;;;5129333;27;20035;-65
2023/08/17 11:05:58;;;;;;;3.83;1.40;;;19.80;99.90;;;;;;5114934;27;20414;-67
2023/08/17 11:08:33;;;;;;;4.57;1.40;;;19.80;99.90;;;;;;5120247;27;20051;-65
2023/08/17 11:11:01;;;;;;;4.85;1.73;;;20.00;99.90;;;;;;5114473;28;20069;-64
2023/08/17 11:13:30;;;;;;;7.28;1.90;;;20.10;99.90;;;;;;5113703;28;20548;-63
2023/08/17 11:15:57;;;;;;;3.47;1.50;;;20.10;99.90;;;;;;5113172;28;20035;-62
2023/08/17 11:18:23;;;;;;;3.67;1.52;;;20.20;99.90;;;;;;5114627;28;20401;-63
2023/08/17 11:20:50;;;;;;;5.18;1.63;;;20.20;99.90;;;;;;5112695;28;20044;-62
2023/08/17 11:23:16;;;;;;;4.35;2.20;;;20.20;99.90;;;;;;5112966;28;20506;-62
2023/08/17 11:25:42;;;;;;;2.55;1.85;;;20.30;99.90;;;;;;5114134;28;20039;-63
2023/08/17 11:28:09;;;;;;;3.40;1.60;;;20.30;99.90;;;;;;5112956;28;20051;-63
2023/08/17 11:30:37;;;;;;;3.30;1.88;;;20.30;99.90;;;;;;5113262;28;20028;-62
2023/08/17 11:33:03;;;;;;;3.78;2.05;;;20.20;99.90;;;;;;5114040;28;20039;-62
2023/08/17 11:35:29;;;;;;;4.18;2.15;;;20.20;99.90;;;;;;5112971;28;20051;-63
2023/08/17 11:37:54;;;;;;;5.45;1.90;;;20.10;99.90;;;;;;5114141;28;20086;-63
2023/08/17 11:40:20;;;;;;;3.78;2.20;;;20.00;99.90;;;;;;5114306;28;20074;-63
2023/08/17 11:42:47;;;;;;;4.20;1.83;;;20.00;99.90;;;;;;5112660;28;20112;-63
2023/08/17 11:45:13;;;;;;;3.38;1.90;;;20.00;99.90;;;;;;5112682;28;20077;-62
2023/08/17 11:47:40;;;;;;;4.60;1.98;;;20.00;99.90;;;;;;5112771;28;20501;-63
2023/08/17 11:50:08;;;;;;;5.32;2.30;;;20.00;99.90;;;;;;5112727;28;20043;-63
2023/08/17 11:52:36;;;;;;;2.38;1.83;;;20.00;99.90;;;;;;5112888;28;20490;-62
2023/08/17 11:55:02;;;;;;;6.50;2.40;;;20.00;99.90;;;;;;5111706;28;20044;-62
2023/08/17 11:57:29;;;;;;;3.50;2.05;;;20.00;99.90;;;;;;5112683;28;20036;-62
2023/08/17 11:59:56;;;;;;;5.75;2.58;;;20.00;99.90;;;;;;5113631;28;20577;-63
2023/08/17 12:02:26;;;;;;;3.80;2.10;;;19.90;99.90;;;;;;5112351;28;20036;-62
2023/08/17 12:04:53;;;;;;;4.88;2.25;;;19.90;99.90;;;;;;5112302;28;20042;-62
2023/08/17 12:07:19;;;;;;;4.47;2.17;;;19.90;99.90;;;;;;5112279;28;20367;-62
2023/08/17 12:09:46;;;;;;;3.13;2.10;;;19.90;99.90;;;;;;5112304;28;20044;-63
2023/08/17 12:12:12;;;;;;;3.33;2.10;;;19.90;99.90;;;;;;5112101;28;20040;-63
2023/08/17 12:14:42;;;;;;;3.55;2.10;;;19.90;99.90;;;;;;5112207;28;20389;-62
2023/08/17 12:17:17;;;;;;;4.28;1.92;;;20.00;99.90;;;;;;5094926;28;20051;-62
2023/08/17 12:19:43;;;;;;;4.00;2.30;;;20.00;99.90;;;;;;5128196;27;20076;-62
2023/08/17 12:22:10;;;;;;;3.00;1.98;;;20.00;99.90;;;;;;5114870;27;20051;-63
2023/08/17 12:24:37;;;;;;;3.35;2.30;;;20.00;99.90;;;;;;5132703;27;20529;-63
2023/08/17 12:27:03;;;;;;;4.97;2.20;;;20.00;99.90;;;;;;5132377;27;20049;-62
2023/08/17 12:29:29;;;;;;;4.88;2.30;;;19.90;99.90;;;;;;5132506;27;20063;-62
2023/08/17 12:31:57;;;;;;;2.83;2.03;;;19.80;99.90;;;;;;5133589;27;20532;-62
2023/08/17 12:34:23;;;;;;;3.20;2.20;;;19.80;99.90;;;;;;5132070;27;20051;-63
2023/08/17 12:36:49;;;;;;;4.80;2.33;;;19.70;99.90;;;;;;5132352;27;20058;-63
2023/08/17 12:39:16;;;;;;;4.55;2.30;;;19.70;99.90;;;;;;5131934;27;20067;-62
2023/08/17 12:41:42;;;;;;;6.55;2.85;;;19.70;99.90;;;;;;5133697;27;20031;-63
2023/08/17 12:44:11;;;;;;;4.38;2.30;;;19.60;99.90;;;;;;5133324;27;20035;-62
2023/08/17 12:46:37;;;;;;;4.30;2.38;;;19.70;99.90;;;;;;5133202;27;20043;-63